sensor_id;sensor_type;location;lat;lon;timestamp;pressure;altitude;pressure_sealevel;temperature
24201;BMP280;2801;50.972;7.856;2024-02-15T00:00:53;97784.41;;;11.49
24201;BMP280;2801;50.972;7.856;2024-02-15T00:03:21;97770.66;;;11.50
24201;BMP280;2801;50.972;7.856;2024-02-15T00:05:48;97778.72;;;11.50
24201;BMP280;2801;50.972;7.856;2024-02-15T00:08:15;97771.47;;;11.51
24201;BMP280;2801;50.972;7.856;2024-02-15T00:10:42;97776.03;;;11.50
24201;BMP280;2801;50.972;7.856;2024-02-15T00:13:13;97777.59;;;11.51
24201;BMP280;2801;50.972;7.856;2024-02-15T00:15:40;97774.47;;;11.49
24201;BMP280;2801;50.972;7.856;2024-02-15T00:18:07;97773.38;;;11.42
24201;BMP280;2801;50.972;7.856;2024-02-15T00:20:34;97776.34;;;11.49
24201;BMP280;2801;50.972;7.856;2024-02-15T00:23:01;97778.72;;;11.50
24201;BMP280;2801;50.972;7.856;2024-02-15T00:25:28;97789.47;;;11.50
24201;BMP280;2801;50.972;7.856;2024-02-15T00:27:57;97782.53;;;11.49
24201;BMP280;2801;50.972;7.856;2024-02-15T00:30:27;97787.72;;;11.54
24201;BMP280;2801;50.972;7.856;2024-02-15T00:32:54;97781.28;;;11.47
24201;BMP280;2801;50.972;7.856;2024-02-15T00:35:22;97787.88;;;11.49
24201;BMP280;2801;50.972;7.856;2024-02-15T00:37:49;97781.88;;;11.52
24201;BMP280;2801;50.972;7.856;2024-02-15T00:40:17;97787.25;;;11.52
24201;BMP280;2801;50.972;7.856;2024-02-15T00:42:44;97783.28;;;11.50
24201;BMP280;2801;50.972;7.856;2024-02-15T00:45:11;97790.56;;;11.49
24201;BMP280;2801;50.972;7.856;2024-02-15T00:47:38;97783.78;;;11.52
24201;BMP280;2801;50.972;7.856;2024-02-15T00:50:09;97791.34;;;11.50
24201;BMP280;2801;50.972;7.856;2024-02-15T00:52:37;97799.88;;;11.52
24201;BMP280;2801;50.972;7.856;2024-02-15T00:55:04;97796.41;;;11.51
24201;BMP280;2801;50.972;7.856;2024-02-15T00:57:31;97796.56;;;11.55
24201;BMP280;2801;50.972;7.856;2024-02-15T00:59:58;97787.06;;;11.57
24201;BMP280;2801;50.972;7.856;2024-02-15T01:02:26;97791.66;;;11.57
24201;BMP280;2801;50.972;7.856;2024-02-15T01:04:54;97785.34;;;11.53
24201;BMP280;2801;50.972;7.856;2024-02-15T01:07:24;97791.50;;;11.53
24201;BMP280;2801;50.972;7.856;2024-02-15T01:09:54;97793.72;;;11.51
24201;BMP280;2801;50.972;7.856;2024-02-15T01:12:21;97790.91;;;11.48
24201;BMP280;2801;50.972;7.856;2024-02-15T01:14:48;97790.56;;;11.49
24201;BMP280;2801;50.972;7.856;2024-02-15T01:17:15;97790.91;;;11.48
24201;BMP280;2801;50.972;7.856;2024-02-15T01:19:43;97794.03;;;11.50
24201;BMP280;2801;50.972;7.856;2024-02-15T01:22:10;97784.56;;;11.52
24201;BMP280;2801;50.972;7.856;2024-02-15T01:24:38;97794.03;;;11.50
24201;BMP280;2801;50.972;7.856;2024-02-15T01:27:05;97795.16;;;11.49
24201;BMP280;2801;50.972;7.856;2024-02-15T01:29:35;97793.25;;;11.49
24201;BMP280;2801;50.972;7.856;2024-02-15T01:32:02;97796.41;;;11.51
24201;BMP280;2801;50.972;7.856;2024-02-15T01:34:29;97791.81;;;11.52
24201;BMP280;2801;50.972;7.856;2024-02-15T01:36:56;97779.53;;;11.51
24201;BMP280;2801;50.972;7.856;2024-02-15T01:39:23;97794.81;;;11.50
24201;BMP280;2801;50.972;7.856;2024-02-15T01:41:50;97789.16;;;11.52
24201;BMP280;2801;50.972;7.856;2024-02-15T01:44:18;97788.03;;;11.53
24201;BMP280;2801;50.972;7.856;2024-02-15T01:46:48;97798.00;;;11.52
24201;BMP280;2801;50.972;7.856;2024-02-15T01:49:15;97795.00;;;11.54
24201;BMP280;2801;50.972;7.856;2024-02-15T01:51:43;97795.44;;;11.56
24201;BMP280;2801;50.972;7.856;2024-02-15T01:54:12;97794.81;;;11.59
24201;BMP280;2801;50.972;7.856;2024-02-15T01:56:40;97789.44;;;11.59
24201;BMP280;2801;50.972;7.856;2024-02-15T01:59:07;97781.69;;;11.57
24201;BMP280;2801;50.972;7.856;2024-02-15T02:01:34;97780.13;;;11.56
24201;BMP280;2801;50.972;7.856;2024-02-15T02:04:01;97785.50;;;11.56
24201;BMP280;2801;50.972;7.856;2024-02-15T02:06:30;97782.03;;;11.56
24201;BMP280;2801;50.972;7.856;2024-02-15T02:08:58;97780.44;;;11.55
24201;BMP280;2801;50.972;7.856;2024-02-15T02:11:26;97785.81;;;11.55
24201;BMP280;2801;50.972;7.856;2024-02-15T02:13:52;97786.59;;;11.55
24201;BMP280;2801;50.972;7.856;2024-02-15T02:16:30;97782.34;;;11.54
24201;BMP280;2801;50.972;7.856;2024-02-15T02:18:59;97782.53;;;11.49
24201;BMP280;2801;50.972;7.856;2024-02-15T02:21:28;97777.91;;;11.50
24201;BMP280;2801;50.972;7.856;2024-02-15T02:23:58;97779.03;;;11.49
24201;BMP280;2801;50.972;7.856;2024-02-15T02:26:27;97774.16;;;11.51
24201;BMP280;2801;50.972;7.856;2024-02-15T02:28:54;97765.28;;;11.50
24201;BMP280;2801;50.972;7.856;2024-02-15T02:31:21;97769.22;;;11.53
24201;BMP280;2801;50.972;7.856;2024-02-15T02:33:53;97766.41;;;11.49
24201;BMP280;2801;50.972;7.856;2024-02-15T02:36:21;97764.84;;;11.48
24201;BMP280;2801;50.972;7.856;2024-02-15T02:38:48;97764.19;;;11.51
24201;BMP280;2801;50.972;7.856;2024-02-15T02:41:18;97766.41;;;11.49
24201;BMP280;2801;50.972;7.856;2024-02-15T02:43:46;97766.09;;;11.51
24201;BMP280;2801;50.972;7.856;2024-02-15T02:46:13;97764.19;;;11.51
24201;BMP280;2801;50.972;7.856;2024-02-15T02:48:40;97768.16;;;11.54
24201;BMP280;2801;50.972;7.856;2024-02-15T02:51:07;97762.09;;;11.57
24201;BMP280;2801;50.972;7.856;2024-02-15T02:53:35;97753.59;;;11.55
24201;BMP280;2801;50.972;7.856;2024-02-15T02:56:02;97755.97;;;11.56
24201;BMP280;2801;50.972;7.856;2024-02-15T02:58:30;97748.88;;;11.52
24201;BMP280;2801;50.972;7.856;2024-02-15T03:00:57;97751.75;;;11.47
24201;BMP280;2801;50.972;7.856;2024-02-15T03:03:27;97747.63;;;11.41
24201;BMP280;2801;50.972;7.856;2024-02-15T03:05:54;97748.75;;;11.40
24201;BMP280;2801;50.972;7.856;2024-02-15T03:08:21;97748.59;;;11.36
24201;BMP280;2801;50.972;7.856;2024-02-15T03:10:49;97748.59;;;11.36
24201;BMP280;2801;50.972;7.856;2024-02-15T03:13:17;97752.72;;;11.33
24201;BMP280;2801;50.972;7.856;2024-02-15T03:15:45;97751.16;;;11.32
24201;BMP280;2801;50.972;7.856;2024-02-15T03:18:16;97750.03;;;11.33
24201;BMP280;2801;50.972;7.856;2024-02-15T03:20:43;97749.25;;;11.33
24201;BMP280;2801;50.972;7.856;2024-02-15T03:23:11;97747.34;;;11.33
24201;BMP280;2801;50.972;7.856;2024-02-15T03:25:38;97750.66;;;11.39
24201;BMP280;2801;50.972;7.856;2024-02-15T03:28:05;97749.22;;;11.42
24201;BMP280;2801;50.972;7.856;2024-02-15T03:30:33;97750.81;;;11.43
24201;BMP280;2801;50.972;7.856;2024-02-15T03:33:01;97750.81;;;11.43
24201;BMP280;2801;50.972;7.856;2024-02-15T03:35:32;97752.06;;;11.45
24201;BMP280;2801;50.972;7.856;2024-02-15T03:38:00;97746.38;;;11.47
24201;BMP280;2801;50.972;7.856;2024-02-15T03:40:28;97746.22;;;11.43
24201;BMP280;2801;50.972;7.856;2024-02-15T03:42:57;97744.78;;;11.46
24201;BMP280;2801;50.972;7.856;2024-02-15T03:45:24;97740.53;;;11.45
24201;BMP280;2801;50.972;7.856;2024-02-15T03:47:54;97745.56;;;11.46
24201;BMP280;2801;50.972;7.856;2024-02-15T03:50:23;97736.41;;;11.47
24201;BMP280;2801;50.972;7.856;2024-02-15T03:52:50;97749.06;;;11.47
24201;BMP280;2801;50.972;7.856;2024-02-15T03:55:18;97741.63;;;11.44
24201;BMP280;2801;50.972;7.856;2024-02-15T03:57:46;97739.28;;;11.42
24201;BMP280;2801;50.972;7.856;2024-02-15T04:00:14;97736.28;;;11.44
24201;BMP280;2801;50.972;7.856;2024-02-15T04:02:41;97741.00;;;11.47
24201;BMP280;2801;50.972;7.856;2024-02-15T04:05:09;97738.94;;;11.44
24201;BMP280;2801;50.972;7.856;2024-02-15T04:07:39;97742.75;;;11.43
24201;BMP280;2801;50.972;7.856;2024-02-15T04:10:07;97744.63;;;11.42
24201;BMP280;2801;50.972;7.856;2024-02-15T04:12:35;97751.13;;;11.41
24201;BMP280;2801;50.972;7.856;2024-02-15T04:15:04;97754.25;;;11.43
24201;BMP280;2801;50.972;7.856;2024-02-15T04:17:42;97749.81;;;11.47
24201;BMP280;2801;50.972;7.856;2024-02-15T04:20:11;97744.13;;;11.49
24201;BMP280;2801;50.972;7.856;2024-02-15T04:22:39;97744.63;;;11.51
24201;BMP280;2801;50.972;7.856;2024-02-15T04:25:09;97747.63;;;11.49
24201;BMP280;2801;50.972;7.856;2024-02-15T04:27:38;97745.38;;;11.51
24201;BMP280;2801;50.972;7.856;2024-02-15T04:30:06;97746.97;;;11.52
24201;BMP280;2801;50.972;7.856;2024-02-15T04:32:35;97745.38;;;11.51
24201;BMP280;2801;50.972;7.856;2024-02-15T04:35:04;97745.53;;;11.55
24201;BMP280;2801;50.972;7.856;2024-02-15T04:37:34;97742.53;;;11.56
24201;BMP280;2801;50.972;7.856;2024-02-15T04:40:01;97745.06;;;11.53
24201;BMP280;2801;50.972;7.856;2024-02-15T04:42:36;97740.50;;;11.53
24201;BMP280;2801;50.972;7.856;2024-02-15T04:45:08;97741.28;;;11.54
24201;BMP280;2801;50.972;7.856;2024-02-15T04:47:38;97748.22;;;11.55
24201;BMP280;2801;50.972;7.856;2024-02-15T04:50:06;97744.44;;;11.56
24201;BMP280;2801;50.972;7.856;2024-02-15T04:52:33;97742.53;;;11.56
24201;BMP280;2801;50.972;7.856;2024-02-15T04:55:03;97741.88;;;11.59
24201;BMP280;2801;50.972;7.856;2024-02-15T04:57:32;97744.44;;;11.56
24201;BMP280;2801;50.972;7.856;2024-02-15T05:00:01;97744.91;;;11.58
24201;BMP280;2801;50.972;7.856;2024-02-15T05:02:31;97741.63;;;11.52
24201;BMP280;2801;50.972;7.856;2024-02-15T05:04:58;97741.94;;;11.51
24201;BMP280;2801;50.972;7.856;2024-02-15T05:07:25;97743.97;;;11.54
24201;BMP280;2801;50.972;7.856;2024-02-15T05:09:52;97738.59;;;11.54
24201;BMP280;2801;50.972;7.856;2024-02-15T05:12:23;97727.88;;;11.54
24201;BMP280;2801;50.972;7.856;2024-02-15T05:14:51;97728.94;;;11.53
24201;BMP280;2801;50.972;7.856;2024-02-15T05:17:20;97719.66;;;11.50
24201;BMP280;2801;50.972;7.856;2024-02-15T05:19:50;97723.47;;;11.49
24201;BMP280;2801;50.972;7.856;2024-02-15T05:22:17;97720.78;;;11.49
24201;BMP280;2801;50.972;7.856;2024-02-15T05:24:45;97720.16;;;11.44
24201;BMP280;2801;50.972;7.856;2024-02-15T05:27:12;97716.88;;;11.38
24201;BMP280;2801;50.972;7.856;2024-02-15T05:29:40;97724.91;;;11.38
24201;BMP280;2801;50.972;7.856;2024-02-15T05:32:10;97720.19;;;11.35
24201;BMP280;2801;50.972;7.856;2024-02-15T05:34:37;97722.88;;;11.35
24201;BMP280;2801;50.972;7.856;2024-02-15T05:37:07;97721.44;;;11.38
24201;BMP280;2801;50.972;7.856;2024-02-15T05:39:33;97709.75;;;11.42
24201;BMP280;2801;50.972;7.856;2024-02-15T05:42:01;97705.50;;;11.41
24201;BMP280;2801;50.972;7.856;2024-02-15T05:44:28;97706.94;;;11.39
24201;BMP280;2801;50.972;7.856;2024-02-15T05:46:55;97713.38;;;11.38
24201;BMP280;2801;50.972;7.856;2024-02-15T05:49:23;97720.34;;;11.39
24201;BMP280;2801;50.972;7.856;2024-02-15T05:51:51;97718.44;;;11.39
24201;BMP280;2801;50.972;7.856;2024-02-15T05:54:20;97721.91;;;11.40
24201;BMP280;2801;50.972;7.856;2024-02-15T05:56:50;97729.31;;;11.43
24201;BMP280;2801;50.972;7.856;2024-02-15T05:59:19;97721.72;;;11.45
24201;BMP280;2801;50.972;7.856;2024-02-15T06:10:00;97723.28;;;11.46
24201;BMP280;2801;50.972;7.856;2024-02-15T06:12:30;97723.16;;;11.42
24201;BMP280;2801;50.972;7.856;2024-02-15T06:14:58;97721.41;;;11.46
24201;BMP280;2801;50.972;7.856;2024-02-15T06:17:25;97722.22;;;11.47
24201;BMP280;2801;50.972;7.856;2024-02-15T06:19:52;97719.19;;;11.48
24201;BMP280;2801;50.972;7.856;2024-02-15T06:22:19;97719.19;;;11.48
24201;BMP280;2801;50.972;7.856;2024-02-15T06:24:46;97724.56;;;11.48
24201;BMP280;2801;50.972;7.856;2024-02-15T06:27:13;97726.75;;;11.55
24201;BMP280;2801;50.972;7.856;2024-02-15T06:29:42;97715.69;;;11.56
24201;BMP280;2801;50.972;7.856;2024-02-15T06:32:28;97720.38;;;11.59
24201;BMP280;2801;50.972;7.856;2024-02-15T06:35:15;97722.16;;;11.55
24201;BMP280;2801;50.972;7.856;2024-02-15T06:38:01;97710.78;;;11.58
24201;BMP280;2801;50.972;7.856;2024-02-15T06:40:46;97712.69;;;11.58
24201;BMP280;2801;50.972;7.856;2024-02-15T06:43:13;97714.56;;;11.57
24201;BMP280;2801;50.972;7.856;2024-02-15T06:45:40;97714.91;;;11.56
24201;BMP280;2801;50.972;7.856;2024-02-15T06:48:11;97719.16;;;11.57
24201;BMP280;2801;50.972;7.856;2024-02-15T06:50:39;97718.38;;;11.56
24201;BMP280;2801;50.972;7.856;2024-02-15T06:53:06;97718.81;;;11.58
24201;BMP280;2801;50.972;7.856;2024-02-15T06:55:33;97712.69;;;11.58
24201;BMP280;2801;50.972;7.856;2024-02-15T06:58:00;97708.56;;;11.60
24201;BMP280;2801;50.972;7.856;2024-02-15T07:00:27;97717.41;;;11.61
24201;BMP280;2801;50.972;7.856;2024-02-15T07:02:57;97720.91;;;11.61
24201;BMP280;2801;50.972;7.856;2024-02-15T07:05:24;97717.56;;;11.64
24201;BMP280;2801;50.972;7.856;2024-02-15T07:07:51;97721.50;;;11.67
24201;BMP280;2801;50.972;7.856;2024-02-15T07:10:18;97727.00;;;11.70
24201;BMP280;2801;50.972;7.856;2024-02-15T07:12:45;97722.13;;;11.72
24201;BMP280;2801;50.972;7.856;2024-02-15T07:15:12;97725.59;;;11.73
24201;BMP280;2801;50.972;7.856;2024-02-15T07:17:39;97726.38;;;11.73
24201;BMP280;2801;50.972;7.856;2024-02-15T07:20:07;97731.75;;;11.73
24201;BMP280;2801;50.972;7.856;2024-02-15T07:22:37;97730.31;;;11.76
24201;BMP280;2801;50.972;7.856;2024-02-15T07:25:05;97729.22;;;11.77
24201;BMP280;2801;50.972;7.856;2024-02-15T07:27:33;97730.13;;;11.81
24201;BMP280;2801;50.972;7.856;2024-02-15T07:30:02;97738.19;;;11.81
24201;BMP280;2801;50.972;7.856;2024-02-15T07:32:31;97734.84;;;11.84
24201;BMP280;2801;50.972;7.856;2024-02-15T07:35:01;97735.63;;;11.84
24201;BMP280;2801;50.972;7.856;2024-02-15T07:37:29;97734.53;;;11.85
24201;BMP280;2801;50.972;7.856;2024-02-15T07:39:56;97737.19;;;11.85
24201;BMP280;2801;50.972;7.856;2024-02-15T07:42:23;97736.25;;;11.90
24201;BMP280;2801;50.972;7.856;2024-02-15T07:44:52;97729.09;;;11.94
24201;BMP280;2801;50.972;7.856;2024-02-15T07:47:22;97726.91;;;11.96
24201;BMP280;2801;50.972;7.856;2024-02-15T07:49:51;97733.84;;;11.97
24201;BMP280;2801;50.972;7.856;2024-02-15T07:52:18;97741.91;;;11.97
24201;BMP280;2801;50.972;7.856;2024-02-15T07:54:45;97737.44;;;12.01
24201;BMP280;2801;50.972;7.856;2024-02-15T07:57:13;97735.88;;;12.00
24201;BMP280;2801;50.972;7.856;2024-02-15T07:59:41;97741.25;;;12.00
24201;BMP280;2801;50.972;7.856;2024-02-15T08:02:09;97745.97;;;12.03
24201;BMP280;2801;50.972;7.856;2024-02-15T08:04:36;97742.94;;;12.04
24201;BMP280;2801;50.972;7.856;2024-02-15T08:07:07;97744.22;;;12.07
24201;BMP280;2801;50.972;7.856;2024-02-15T08:09:38;97748.47;;;12.08
24201;BMP280;2801;50.972;7.856;2024-02-15T08:12:09;97740.09;;;12.09
24201;BMP280;2801;50.972;7.856;2024-02-15T08:14:36;97742.47;;;12.11
24201;BMP280;2801;50.972;7.856;2024-02-15T08:17:03;97740.22;;;12.13
24201;BMP280;2801;50.972;7.856;2024-02-15T08:19:30;97754.78;;;12.12
24201;BMP280;2801;50.972;7.856;2024-02-15T08:22:06;97747.16;;;12.14
24201;BMP280;2801;50.972;7.856;2024-02-15T08:24:34;97744.63;;;12.17
24201;BMP280;2801;50.972;7.856;2024-02-15T08:27:02;97743.97;;;12.20
24201;BMP280;2801;50.972;7.856;2024-02-15T08:29:31;97747.44;;;12.21
24201;BMP280;2801;50.972;7.856;2024-02-15T08:31:58;97751.72;;;12.22
24201;BMP280;2801;50.972;7.856;2024-02-15T08:34:25;97754.53;;;12.25
24201;BMP280;2801;50.972;7.856;2024-02-15T08:36:52;97756.88;;;12.27
24201;BMP280;2801;50.972;7.856;2024-02-15T08:39:19;97754.66;;;12.29
24201;BMP280;2801;50.972;7.856;2024-02-15T08:41:50;97754.31;;;12.30
24201;BMP280;2801;50.972;7.856;2024-02-15T08:44:18;97755.13;;;12.31
24201;BMP280;2801;50.972;7.856;2024-02-15T08:46:46;97755.66;;;12.24
24201;BMP280;2801;50.972;7.856;2024-02-15T08:49:15;97755.00;;;12.27
24201;BMP280;2801;50.972;7.856;2024-02-15T08:51:42;97749.28;;;12.29
24201;BMP280;2801;50.972;7.856;2024-02-15T08:54:09;97752.75;;;12.29
24201;BMP280;2801;50.972;7.856;2024-02-15T08:56:36;97743.25;;;12.32
24201;BMP280;2801;50.972;7.856;2024-02-15T08:59:03;97742.41;;;12.40
24201;BMP280;2801;50.972;7.856;2024-02-15T09:01:31;97740.13;;;12.50
24201;BMP280;2801;50.972;7.856;2024-02-15T09:03:57;97744.66;;;12.58
24201;BMP280;2801;50.972;7.856;2024-02-15T09:06:25;97736.84;;;12.65
24201;BMP280;2801;50.972;7.856;2024-02-15T09:08:52;97742.00;;;12.70
24201;BMP280;2801;50.972;7.856;2024-02-15T09:11:19;97731.69;;;12.72
24201;BMP280;2801;50.972;7.856;2024-02-15T09:13:46;97730.28;;;12.75
24201;BMP280;2801;50.972;7.856;2024-02-15T09:16:16;97718.13;;;12.69
24201;BMP280;2801;50.972;7.856;2024-02-15T09:18:43;97711.63;;;12.70
24201;BMP280;2801;50.972;7.856;2024-02-15T09:21:13;97710.59;;;12.62
24201;BMP280;2801;50.972;7.856;2024-02-15T09:23:41;97707.31;;;12.57
24201;BMP280;2801;50.972;7.856;2024-02-15T09:26:08;97708.19;;;12.49
24201;BMP280;2801;50.972;7.856;2024-02-15T09:28:36;97708.50;;;12.47
24201;BMP280;2801;50.972;7.856;2024-02-15T09:31:03;97710.41;;;12.47
24201;BMP280;2801;50.972;7.856;2024-02-15T09:33:30;97709.16;;;12.44
24201;BMP280;2801;50.972;7.856;2024-02-15T09:35:57;97715.25;;;12.33
24201;BMP280;2801;50.972;7.856;2024-02-15T09:38:24;97714.41;;;12.41
24201;BMP280;2801;50.972;7.856;2024-02-15T09:40:52;97708.88;;;12.37
24201;BMP280;2801;50.972;7.856;2024-02-15T09:43:19;97718.19;;;12.40
24201;BMP280;2801;50.972;7.856;2024-02-15T09:45:47;97712.91;;;12.52
24201;BMP280;2801;50.972;7.856;2024-02-15T09:48:18;97703.50;;;12.58
24201;BMP280;2801;50.972;7.856;2024-02-15T09:50:46;97705.66;;;12.64
24201;BMP280;2801;50.972;7.856;2024-02-15T09:53:15;97706.25;;;12.70
24201;BMP280;2801;50.972;7.856;2024-02-15T09:55:42;97704.13;;;12.75
24201;BMP280;2801;50.972;7.856;2024-02-15T09:58:11;97703.25;;;12.83
24201;BMP280;2801;50.972;7.856;2024-02-15T10:00:39;97708.47;;;12.88
24201;BMP280;2801;50.972;7.856;2024-02-15T10:03:07;97711.16;;;12.88
24201;BMP280;2801;50.972;7.856;2024-02-15T10:05:37;97708.47;;;12.88
24201;BMP280;2801;50.972;7.856;2024-02-15T10:08:07;97712.16;;;12.96
24201;BMP280;2801;50.972;7.856;2024-02-15T10:10:34;97711.72;;;12.94
24201;BMP280;2801;50.972;7.856;2024-02-15T10:13:02;97705.66;;;12.97
24201;BMP280;2801;50.972;7.856;2024-02-15T10:15:40;97705.59;;;13.05
24201;BMP280;2801;50.972;7.856;2024-02-15T10:18:09;97700.59;;;13.16
24201;BMP280;2801;50.972;7.856;2024-02-15T10:20:39;97711.84;;;13.30
24201;BMP280;2801;50.972;7.856;2024-02-15T10:25:39;97707.47;;;13.37
24201;BMP280;2801;50.972;7.856;2024-02-15T10:28:14;97694.59;;;13.43
24201;BMP280;2801;50.972;7.856;2024-02-15T10:30:46;97696.06;;;13.52
24201;BMP280;2801;50.972;7.856;2024-02-15T10:33:28;97691.66;;;13.60
24201;BMP280;2801;50.972;7.856;2024-02-15T10:36:10;97679.66;;;13.69
24201;BMP280;2801;50.972;7.856;2024-02-15T10:38:40;97685.16;;;13.73
24201;BMP280;2801;50.972;7.856;2024-02-15T10:41:08;97681.78;;;13.76
24201;BMP280;2801;50.972;7.856;2024-02-15T10:43:37;97678.66;;;13.74
24201;BMP280;2801;50.972;7.856;2024-02-15T10:46:05;97672.59;;;13.65
24201;BMP280;2801;50.972;7.856;2024-02-15T10:48:37;97675.06;;;13.70
24201;BMP280;2801;50.972;7.856;2024-02-15T10:51:10;97676.38;;;13.76
24201;BMP280;2801;50.972;7.856;2024-02-15T10:53:47;97673.81;;;13.79
24201;BMP280;2801;50.972;7.856;2024-02-15T10:56:26;97682.78;;;13.95
24201;BMP280;2801;50.972;7.856;2024-02-15T10:59:19;97667.28;;;14.04
24201;BMP280;2801;50.972;7.856;2024-02-15T11:01:58;97657.81;;;14.10
24201;BMP280;2801;50.972;7.856;2024-02-15T11:04:31;97665.81;;;14.07
24201;BMP280;2801;50.972;7.856;2024-02-15T11:06:59;97662.75;;;14.20
24201;BMP280;2801;50.972;7.856;2024-02-15T11:09:30;97658.47;;;14.31
24201;BMP280;2801;50.972;7.856;2024-02-15T11:11:57;97662.81;;;14.48
24201;BMP280;2801;50.972;7.856;2024-02-15T11:14:30;97651.44;;;14.54
24201;BMP280;2801;50.972;7.856;2024-02-15T11:17:02;97659.91;;;14.68
24201;BMP280;2801;50.972;7.856;2024-02-15T11:22:14;97652.72;;;14.88
24201;BMP280;2801;50.972;7.856;2024-02-15T11:24:50;97641.31;;;14.95
24201;BMP280;2801;50.972;7.856;2024-02-15T11:27:27;97644.38;;;14.93
24201;BMP280;2801;50.972;7.856;2024-02-15T11:29:59;97648.81;;;14.86
24201;BMP280;2801;50.972;7.856;2024-02-15T11:32:49;97646.03;;;14.82
24201;BMP280;2801;50.972;7.856;2024-02-15T11:35:25;97642.44;;;14.78
24201;BMP280;2801;50.972;7.856;2024-02-15T11:37:58;97631.88;;;14.73
24201;BMP280;2801;50.972;7.856;2024-02-15T11:43:44;97631.00;;;14.69
24201;BMP280;2801;50.972;7.856;2024-02-15T11:46:00;97624.47;;;14.70
24201;BMP280;2801;50.972;7.856;2024-02-15T11:48:29;97624.31;;;14.63
24201;BMP280;2801;50.972;7.856;2024-02-15T11:50:57;97627.44;;;14.65
24201;BMP280;2801;50.972;7.856;2024-02-15T11:53:26;97619.59;;;14.75
24201;BMP280;2801;50.972;7.856;2024-02-15T11:56:00;97614.94;;;14.73
24201;BMP280;2801;50.972;7.856;2024-02-15T11:58:27;97610.91;;;14.66
24201;BMP280;2801;50.972;7.856;2024-02-15T12:01:15;97608.47;;;14.77
24201;BMP280;2801;50.972;7.856;2024-02-15T12:04:01;97604.44;;;14.55
24201;BMP280;2801;50.972;7.856;2024-02-15T12:06:46;97601.25;;;14.65
24201;BMP280;2801;50.972;7.856;2024-02-15T12:09:32;97600.28;;;14.73
24201;BMP280;2801;50.972;7.856;2024-02-15T12:12:18;97599.34;;;14.82
24201;BMP280;2801;50.972;7.856;2024-02-15T12:15:03;97592.13;;;14.86
24201;BMP280;2801;50.972;7.856;2024-02-15T12:17:49;97591.44;;;14.89
24201;BMP280;2801;50.972;7.856;2024-02-15T12:20:35;97585.25;;;14.88
24201;BMP280;2801;50.972;7.856;2024-02-15T12:23:03;97584.72;;;14.98
24201;BMP280;2801;50.972;7.856;2024-02-15T12:25:34;97585.66;;;15.06
24201;BMP280;2801;50.972;7.856;2024-02-15T12:28:02;97580.91;;;15.15
24201;BMP280;2801;50.972;7.856;2024-02-15T12:30:34;97580.28;;;15.21
24201;BMP280;2801;50.972;7.856;2024-02-15T12:33:13;97581.31;;;15.32
24201;BMP280;2801;50.972;7.856;2024-02-15T12:35:48;97577.81;;;15.32
24201;BMP280;2801;50.972;7.856;2024-02-15T12:38:17;97575.66;;;15.37
24201;BMP280;2801;50.972;7.856;2024-02-15T12:40:45;97582.81;;;15.45
24201;BMP280;2801;50.972;7.856;2024-02-15T12:43:15;97588.38;;;15.52
24201;BMP280;2801;50.972;7.856;2024-02-15T12:45:43;97577.56;;;15.52
24201;BMP280;2801;50.972;7.856;2024-02-15T12:48:10;97575.22;;;15.51
24201;BMP280;2801;50.972;7.856;2024-02-15T12:50:38;97578.19;;;15.46
24201;BMP280;2801;50.972;7.856;2024-02-15T12:53:05;97576.28;;;15.46
24201;BMP280;2801;50.972;7.856;2024-02-15T12:55:37;97569.22;;;15.42
24201;BMP280;2801;50.972;7.856;2024-02-15T12:58:13;97573.63;;;15.34
24201;BMP280;2801;50.972;7.856;2024-02-15T13:00:43;97572.28;;;15.40
24201;BMP280;2801;50.972;7.856;2024-02-15T13:03:12;97572.44;;;15.47
24201;BMP280;2801;50.972;7.856;2024-02-15T13:05:42;97565.03;;;15.44
24201;BMP280;2801;50.972;7.856;2024-02-15T13:08:09;97553.44;;;15.44
24201;BMP280;2801;50.972;7.856;2024-02-15T13:10:45;97555.38;;;15.43
24201;BMP280;2801;50.972;7.856;2024-02-15T13:13:13;97550.66;;;15.40
24201;BMP280;2801;50.972;7.856;2024-02-15T13:15:45;97542.13;;;15.38
24201;BMP280;2801;50.972;7.856;2024-02-15T13:18:14;97544.63;;;15.47
24201;BMP280;2801;50.972;7.856;2024-02-15T13:20:42;97539.56;;;15.45
24201;BMP280;2801;50.972;7.856;2024-02-15T13:23:11;97541.56;;;15.48
24201;BMP280;2801;50.972;7.856;2024-02-15T13:25:54;97537.72;;;15.49
24201;BMP280;2801;50.972;7.856;2024-02-15T13:28:23;97528.63;;;15.38
24201;BMP280;2801;50.972;7.856;2024-02-15T13:30:52;97528.50;;;15.35
24201;BMP280;2801;50.972;7.856;2024-02-15T13:33:21;97520.41;;;15.35
24201;BMP280;2801;50.972;7.856;2024-02-15T13:35:49;97514.34;;;15.38
24201;BMP280;2801;50.972;7.856;2024-02-15T13:38:18;97516.16;;;15.34
24201;BMP280;2801;50.972;7.856;2024-02-15T13:40:52;97511.09;;;15.32
24201;BMP280;2801;50.972;7.856;2024-02-15T13:43:22;97513.53;;;15.37
24201;BMP280;2801;50.972;7.856;2024-02-15T13:45:49;97508.06;;;15.18
24201;BMP280;2801;50.972;7.856;2024-02-15T13:48:16;97497.50;;;15.29
24201;BMP280;2801;50.972;7.856;2024-02-15T13:50:43;97493.31;;;15.31
24201;BMP280;2801;50.972;7.856;2024-02-15T13:53:12;97487.13;;;15.31
24201;BMP280;2801;50.972;7.856;2024-02-15T13:55:41;97486.91;;;15.20
24201;BMP280;2801;50.972;7.856;2024-02-15T13:58:08;97483.56;;;15.27
24201;BMP280;2801;50.972;7.856;2024-02-15T14:00:41;97481.66;;;15.27
24201;BMP280;2801;50.972;7.856;2024-02-15T14:03:11;97476.63;;;15.26
24201;BMP280;2801;50.972;7.856;2024-02-15T14:05:40;97477.72;;;15.25
24201;BMP280;2801;50.972;7.856;2024-02-15T14:08:09;97471.72;;;15.31
24201;BMP280;2801;50.972;7.856;2024-02-15T14:10:37;97468.66;;;15.33
24201;BMP280;2801;50.972;7.856;2024-02-15T14:13:05;97466.66;;;15.30
24201;BMP280;2801;50.972;7.856;2024-02-15T14:15:33;97470.56;;;15.32
24201;BMP280;2801;50.972;7.856;2024-02-15T14:18:06;97467.53;;;15.34
24201;BMP280;2801;50.972;7.856;2024-02-15T14:20:34;97457.25;;;15.39
24201;BMP280;2801;50.972;7.856;2024-02-15T14:23:01;97451.97;;;15.27
24201;BMP280;2801;50.972;7.856;2024-02-15T14:25:33;97449.50;;;15.22
24201;BMP280;2801;50.972;7.856;2024-02-15T14:28:01;97449.00;;;15.17
24201;BMP280;2801;50.972;7.856;2024-02-15T14:30:30;97450.84;;;15.13
24201;BMP280;2801;50.972;7.856;2024-02-15T14:33:15;97449.47;;;15.03
24201;BMP280;2801;50.972;7.856;2024-02-15T14:35:46;97444.34;;;14.98
24201;BMP280;2801;50.972;7.856;2024-02-15T14:38:14;97452.53;;;15.02
24201;BMP280;2801;50.972;7.856;2024-02-15T14:40:45;97446.19;;;14.94
24201;BMP280;2801;50.972;7.856;2024-02-15T14:43:21;97456.88;;;14.91
24201;BMP280;2801;50.972;7.856;2024-02-15T14:45:49;97447.84;;;14.83
24201;BMP280;2801;50.972;7.856;2024-02-15T14:48:16;97445.44;;;14.78
24201;BMP280;2801;50.972;7.856;2024-02-15T14:50:46;97450.84;;;14.78